createdAt,value
2018-09-01T00:00:02.013Z,14.78
2018-09-01T00:02:29.091Z,15.58
2018-09-01T00:04:56.059Z,15.20
2018-09-01T00:07:23.034Z,15.73
2018-09-01T00:09:50.076Z,15.90
2018-09-01T00:12:17.062Z,15.03
2018-09-01T00:14:44.048Z,14.65
2018-09-01T00:17:27.262Z,14.25
2018-09-01T00:19:54.312Z,14.90
2018-09-01T00:22:21.339Z,16.05
2018-09-01T00:24:48.331Z,15.40
2018-09-01T00:27:15.325Z,15.75
2018-09-01T00:29:42.320Z,15.35
2018-09-01T00:32:09.369Z,15.45
2018-09-01T00:34:36.359Z,15.40
2018-09-01T00:37:03.346Z,15.53
2018-09-01T00:39:30.688Z,15.60
2018-09-01T00:41:57.673Z,15.13
2018-09-01T00:44:24.686Z,16.17
2018-09-01T00:46:51.673Z,15.63
2018-09-01T00:49:18.692Z,15.28
2018-09-01T00:51:45.768Z,16.10
2018-09-01T00:54:12.789Z,15.72
2018-09-01T00:56:39.779Z,14.58
2018-09-01T00:59:06.780Z,15.53
2018-09-01T01:01:33.831Z,14.93
2018-09-01T01:04:00.856Z,15.03
2018-09-01T01:06:27.842Z,14.47
2018-09-01T01:08:54.865Z,14.53
2018-09-01T01:11:21.863Z,14.50
2018-09-01T01:13:48.870Z,14.55
2018-09-01T01:16:16.128Z,14.40
2018-09-01T01:18:43.248Z,14.07
2018-09-01T01:21:10.276Z,12.85
2018-09-01T01:23:37.300Z,13.55
2018-09-01T01:26:04.378Z,13.20
2018-09-01T01:28:31.346Z,12.75
2018-09-01T01:30:58.504Z,12.95
2018-09-01T01:33:25.491Z,12.37
2018-09-01T01:35:52.468Z,12.70
2018-09-01T01:38:19.484Z,12.78
2018-09-01T01:40:47.037Z,12.63
2018-09-01T01:43:14.089Z,12.80
2018-09-01T01:45:41.098Z,12.13
2018-09-01T01:48:08.067Z,13.00
2018-09-01T01:50:35.081Z,11.95
2018-09-01T01:53:02.164Z,12.18
2018-09-01T01:55:29.163Z,11.75
2018-09-01T01:57:56.138Z,11.68
2018-09-01T02:00:23.129Z,11.97
2018-09-01T02:02:50.128Z,12.07
2018-09-01T02:05:19.100Z,12.10
2018-09-01T02:07:47.663Z,12.50
2018-09-01T02:10:14.725Z,11.43
2018-09-01T02:12:42.054Z,12.25
2018-09-01T02:15:09.072Z,11.83
2018-09-01T02:17:36.051Z,12.58
2018-09-01T02:20:03.191Z,11.83
2018-09-01T02:22:30.672Z,12.30
2018-09-01T02:24:57.662Z,12.03
2018-09-01T02:27:24.642Z,11.60
2018-09-01T02:29:51.688Z,11.85
2018-09-01T02:32:18.657Z,11.30
2018-09-01T02:34:45.648Z,10.75
2018-09-01T02:37:12.767Z,10.55
2018-09-01T02:39:39.748Z,10.50
2018-09-01T02:42:07.482Z,10.60
2018-09-01T02:44:34.450Z,10.50
2018-09-01T02:47:01.491Z,10.10
2018-09-01T02:49:28.468Z,10.32
2018-09-01T02:51:55.477Z,10.20
2018-09-01T02:54:22.467Z,10.32
2018-09-01T02:56:49.459Z,10.75
2018-09-01T02:59:16.452Z,10.30
2018-09-01T03:01:43.478Z,11.50
2018-09-01T03:04:10.494Z,10.90
2018-09-01T03:06:49.795Z,11.18
2018-09-01T03:09:16.830Z,10.50
2018-09-01T03:11:43.830Z,11.30
2018-09-01T03:14:10.828Z,11.15
2018-09-01T03:16:37.869Z,10.98
2018-09-01T03:19:05.026Z,10.90
2018-09-01T03:21:32.028Z,10.37
2018-09-01T03:23:59.007Z,9.98
2018-09-01T03:26:26.104Z,10.93
2018-09-01T03:28:53.106Z,10.50
2018-09-01T03:31:20.139Z,10.23
2018-09-01T03:33:47.087Z,9.63
2018-09-01T03:36:14.085Z,9.98
2018-09-01T03:38:41.090Z,10.05
2018-09-01T03:41:08.052Z,9.85
2018-09-01T03:43:35.198Z,9.60
2018-09-01T03:46:02.168Z,9.58
2018-09-01T03:48:29.131Z,9.90
2018-09-01T03:50:56.656Z,10.00
2018-09-01T03:53:23.637Z,10.28
2018-09-01T03:55:50.657Z,10.27
2018-09-01T03:58:17.634Z,11.20
2018-09-01T04:00:44.626Z,10.45
2018-09-01T04:03:11.667Z,11.10
2018-09-01T04:05:38.676Z,11.70
2018-09-01T04:08:05.655Z,11.33
2018-09-01T04:10:32.632Z,11.75
2018-09-01T04:12:59.639Z,10.88
2018-09-01T04:15:26.634Z,11.30
2018-09-01T04:17:53.694Z,11.63
2018-09-01T04:20:20.676Z,12.20
2018-09-01T04:22:47.662Z,12.07
2018-09-01T04:25:14.762Z,12.35
2018-09-01T04:27:41.762Z,11.35
2018-09-01T04:30:08.742Z,11.05
2018-09-01T04:32:35.740Z,11.48
2018-09-01T04:35:02.745Z,11.73
2018-09-01T04:37:29.783Z,11.65
2018-09-01T04:39:56.754Z,11.33
2018-09-01T04:42:23.764Z,10.63
2018-09-01T04:44:51.118Z,10.63
2018-09-01T04:47:18.111Z,11.03
2018-09-01T04:49:45.104Z,10.72
2018-09-01T04:52:12.087Z,11.50
2018-09-01T04:54:39.085Z,11.30
2018-09-01T04:57:06.080Z,11.20
2018-09-01T04:59:33.055Z,11.18
2018-09-01T05:02:00.018Z,11.38
2018-09-01T05:04:27.023Z,10.70
2018-09-01T05:06:54.038Z,11.53
2018-09-01T05:09:21.003Z,11.00
2018-09-01T05:11:47.999Z,11.08
2018-09-01T05:14:14.985Z,11.18
2018-09-01T05:16:41.975Z,10.95
2018-09-01T05:19:08.998Z,10.48
2018-09-01T05:21:35.986Z,10.90
2018-09-01T05:24:02.993Z,10.30
2018-09-01T05:26:29.927Z,10.08
2018-09-01T05:28:56.890Z,10.18
2018-09-01T05:31:23.857Z,9.60
2018-09-01T05:33:50.843Z,9.55
2018-09-01T05:36:17.810Z,8.83
2018-09-01T05:38:44.768Z,8.73
2018-09-01T05:41:11.731Z,8.83
2018-09-01T05:43:38.729Z,9.08
2018-09-01T05:46:06.235Z,9.28
2018-09-01T05:48:33.209Z,9.03
2018-09-01T05:51:00.183Z,9.55
2018-09-01T05:53:27.159Z,9.70
2018-09-01T05:55:54.207Z,9.20
2018-09-01T05:58:21.185Z,9.10
2018-09-01T06:00:49.343Z,9.60
2018-09-01T06:03:16.836Z,21.62
2018-09-01T06:05:44.276Z,25.52
2018-09-01T06:08:11.246Z,20.17
2018-09-01T06:10:38.291Z,15.05
2018-09-01T06:13:05.318Z,15.35
2018-09-01T06:15:32.289Z,11.97
2018-09-01T06:17:59.317Z,22.53
2018-09-01T06:20:26.254Z,18.02
2018-09-01T06:22:53.242Z,10.43
2018-09-01T06:25:20.227Z,8.75
2018-09-01T06:27:49.355Z,8.60
2018-09-01T06:30:19.886Z,7.90
2018-09-01T06:32:46.853Z,7.85
2018-09-01T06:35:13.826Z,17.98
2018-09-01T06:37:40.819Z,14.13
2018-09-01T06:40:07.754Z,7.47
2018-09-01T06:42:34.883Z,7.35
2018-09-01T06:45:01.916Z,7.00
2018-09-01T06:47:29.685Z,6.80
2018-09-01T06:49:56.648Z,6.83
2018-09-01T06:52:23.614Z,6.83
2018-09-01T06:54:50.639Z,6.37
2018-09-01T06:57:17.612Z,6.70
2018-09-01T06:59:44.596Z,6.40
2018-09-01T07:02:11.602Z,6.30
2018-09-01T07:04:38.601Z,6.53
2018-09-01T07:07:05.572Z,5.95
2018-09-01T07:09:32.573Z,25.37
2018-09-01T07:11:59.660Z,11.97
2018-09-01T07:14:27.523Z,7.08
2018-09-01T07:16:54.515Z,6.72
2018-09-01T07:19:21.471Z,7.03
2018-09-01T07:21:48.442Z,6.90
2018-09-01T07:24:15.454Z,7.37
2018-09-01T07:26:42.455Z,6.30
2018-09-01T07:29:09.431Z,6.83
2018-09-01T07:31:36.756Z,6.22
2018-09-01T07:34:03.401Z,6.62
2018-09-01T07:36:30.465Z,6.50
2018-09-01T07:38:57.447Z,5.90
2018-09-01T07:41:24.415Z,6.00
2018-09-01T07:43:51.387Z,6.17
2018-09-01T07:46:18.387Z,5.53
2018-09-01T07:48:45.523Z,5.60
2018-09-01T07:51:12.556Z,5.33
2018-09-01T07:53:39.574Z,4.78
2018-09-01T07:56:06.784Z,19.75
2018-09-01T07:58:33.723Z,6.13
2018-09-01T08:01:00.738Z,5.00
2018-09-01T08:03:27.728Z,5.30
2018-09-01T08:05:54.715Z,4.90
2018-09-01T08:08:21.711Z,5.00
2018-09-01T08:10:49.456Z,5.00
2018-09-01T08:13:16.523Z,5.13
2018-09-01T08:15:43.563Z,4.87
2018-09-01T08:18:10.930Z,5.15
2018-09-01T08:20:38.023Z,12.10
2018-09-01T08:23:05.027Z,4.58
2018-09-01T08:25:31.998Z,4.62
2018-09-01T08:27:58.961Z,4.25
2018-09-01T08:30:25.969Z,4.05
2018-09-01T08:32:52.967Z,4.05
2018-09-01T08:35:19.986Z,4.05
2018-09-01T08:37:46.995Z,3.85
2018-09-01T08:40:14.026Z,4.03
2018-09-01T08:42:40.974Z,3.95
2018-09-01T08:45:07.989Z,3.80
2018-09-01T08:47:34.965Z,3.75
2018-09-01T08:50:02.312Z,4.08
2018-09-01T08:52:29.293Z,3.90
2018-09-01T08:54:56.374Z,3.90
2018-09-01T08:57:23.330Z,3.90
2018-09-01T08:59:50.302Z,3.80
2018-09-01T09:02:17.349Z,3.90
2018-09-01T09:04:44.299Z,3.70
2018-09-01T09:07:11.270Z,3.70
2018-09-01T09:09:38.234Z,3.53
2018-09-01T09:12:05.201Z,3.30
2018-09-01T09:14:32.194Z,3.20
2018-09-01T09:16:59.146Z,3.40
2018-09-01T09:19:26.199Z,3.40
2018-09-01T09:21:53.203Z,3.80
2018-09-01T09:24:20.154Z,3.90
2018-09-01T09:26:47.119Z,3.98
2018-09-01T09:29:14.103Z,3.35
2018-09-01T09:31:41.076Z,3.45
2018-09-01T09:34:08.062Z,3.37
2018-09-01T09:36:35.015Z,3.47
2018-09-01T09:39:02.966Z,3.30
2018-09-01T09:41:29.927Z,3.20
2018-09-01T09:43:56.902Z,3.63
2018-09-01T09:46:23.851Z,2.98
2018-09-01T09:48:50.831Z,3.20
2018-09-01T09:51:17.987Z,3.27
2018-09-01T09:53:45.066Z,2.90
2018-09-01T09:56:12.006Z,3.20
2018-09-01T09:58:38.998Z,3.08
2018-09-01T10:01:25.566Z,2.80
2018-09-01T10:03:52.633Z,2.77
2018-09-01T10:06:19.664Z,2.80
2018-09-01T10:08:46.705Z,2.83
2018-09-01T10:11:13.695Z,2.67
2018-09-01T10:13:40.650Z,2.65
2018-09-01T10:16:10.152Z,2.60
2018-09-01T10:18:38.248Z,2.30
2018-09-01T10:21:05.235Z,2.85
2018-09-01T10:23:32.191Z,2.67
2018-09-01T10:25:59.231Z,2.67
2018-09-01T10:28:26.183Z,2.27
2018-09-01T10:30:53.164Z,2.60
2018-09-01T10:33:20.381Z,5.35
2018-09-01T10:35:47.351Z,3.20
2018-09-01T10:38:14.298Z,3.20
2018-09-01T10:40:41.312Z,3.50
2018-09-01T10:43:08.295Z,2.30
2018-09-01T10:45:35.239Z,2.40
2018-09-01T10:48:02.361Z,2.50
2018-09-01T10:50:29.262Z,2.42
2018-09-01T10:52:56.503Z,2.55
2018-09-01T10:55:23.483Z,2.67
2018-09-01T10:57:50.434Z,2.40
2018-09-01T11:00:19.223Z,2.47
2018-09-01T11:02:47.210Z,2.57
2018-09-01T11:05:14.209Z,2.35
2018-09-01T11:07:41.131Z,2.22
2018-09-01T11:10:08.094Z,2.65
2018-09-01T11:12:35.067Z,2.17
2018-09-01T11:15:02.031Z,4.72
2018-09-01T11:17:29.070Z,2.60
2018-09-01T11:19:56.033Z,2.30
2018-09-01T11:22:23.007Z,2.20
2018-09-01T11:24:51.738Z,2.30
2018-09-01T11:27:18.581Z,2.33
2018-09-01T11:29:45.525Z,2.20
2018-09-01T11:32:12.547Z,2.60
2018-09-01T11:34:39.544Z,2.40
2018-09-01T11:37:06.507Z,2.80
2018-09-01T11:39:33.501Z,2.30
2018-09-01T11:42:00.468Z,2.27
2018-09-01T11:44:27.450Z,2.58
2018-09-01T11:46:54.434Z,2.08
2018-09-01T11:49:21.398Z,2.20
2018-09-01T11:51:48.397Z,2.43
2018-09-01T11:54:15.526Z,2.40
2018-09-01T11:56:42.535Z,11.10
2018-09-01T11:59:09.481Z,2.47
2018-09-01T12:01:36.473Z,2.20
2018-09-01T12:04:03.501Z,2.30
2018-09-01T12:06:30.486Z,2.20
2018-09-01T12:08:57.575Z,2.17
2018-09-01T12:11:24.426Z,2.40
2018-09-01T12:13:51.463Z,2.05
2018-09-01T12:16:18.416Z,2.33
2018-09-01T12:18:45.415Z,2.17
2018-09-01T12:21:12.397Z,2.30
2018-09-01T12:23:39.371Z,2.47
2018-09-01T12:26:06.354Z,2.40
2018-09-01T12:28:33.365Z,2.45
2018-09-01T12:31:00.334Z,2.20
2018-09-01T12:33:27.296Z,2.33
2018-09-01T12:35:54.307Z,2.25
2018-09-01T12:38:21.293Z,10.68
2018-09-01T12:40:48.311Z,5.55
2018-09-01T12:43:15.277Z,2.42
2018-09-01T12:45:42.294Z,1.80
2018-09-01T12:48:09.274Z,2.40
2018-09-01T12:50:36.245Z,2.40
2018-09-01T12:53:03.321Z,3.27
2018-09-01T12:55:30.645Z,2.50
2018-09-01T12:57:57.761Z,2.30
2018-09-01T13:00:24.828Z,2.40
2018-09-01T13:02:51.839Z,2.15
2018-09-01T13:05:18.807Z,2.20
2018-09-01T13:07:45.854Z,2.37
2018-09-01T13:10:12.835Z,2.10
2018-09-01T13:12:39.867Z,2.25
2018-09-01T13:15:06.859Z,2.22
2018-09-01T13:17:33.825Z,2.30
2018-09-01T13:20:00.799Z,2.10
2018-09-01T13:22:27.815Z,2.25
2018-09-01T13:24:54.774Z,2.20
2018-09-01T13:27:21.742Z,2.10
2018-09-01T13:29:48.719Z,2.60
2018-09-01T13:32:15.660Z,2.50
2018-09-01T13:34:42.629Z,2.60
2018-09-01T13:37:09.702Z,2.40
2018-09-01T13:39:36.732Z,3.70
2018-09-01T13:42:03.680Z,5.60
2018-09-01T13:44:30.716Z,3.05
2018-09-01T13:46:57.715Z,2.30
2018-09-01T13:49:24.667Z,7.97
2018-09-01T13:51:51.650Z,10.40
2018-09-01T13:54:18.680Z,2.20
2018-09-01T13:56:46.140Z,2.10
2018-09-01T13:59:13.215Z,2.22
2018-09-01T14:01:40.182Z,2.70
2018-09-01T14:04:07.211Z,2.42
2018-09-01T14:06:34.178Z,3.17
2018-09-01T14:09:01.247Z,5.37
2018-09-01T14:11:28.199Z,3.45
2018-09-01T14:13:55.176Z,3.35
2018-09-01T14:16:22.131Z,3.27
2018-09-01T14:18:49.113Z,2.87
2018-09-01T14:21:16.096Z,2.80
2018-09-01T14:23:43.058Z,2.40
2018-09-01T14:26:10.038Z,2.37
2018-09-01T14:28:37.039Z,2.50
2018-09-01T14:31:04.032Z,2.20
2018-09-01T14:33:31.029Z,2.10
2018-09-01T14:35:58.013Z,2.30
2018-09-01T14:38:25.853Z,2.25
2018-09-01T14:40:52.746Z,2.10
2018-09-01T14:43:19.737Z,2.00
2018-09-01T14:45:46.705Z,2.00
2018-09-01T14:48:13.730Z,2.10
2018-09-01T14:50:40.639Z,2.20
2018-09-01T14:53:07.621Z,1.90
2018-09-01T14:55:34.558Z,1.82
2018-09-01T14:58:01.823Z,2.30
2018-09-01T15:00:28.779Z,2.05
2018-09-01T15:02:55.736Z,2.12
2018-09-01T15:05:22.710Z,2.37
2018-09-01T15:07:49.690Z,2.20
2018-09-01T15:10:16.664Z,2.00
2018-09-01T15:12:43.856Z,2.03
2018-09-01T15:15:10.829Z,2.17
2018-09-01T15:17:37.792Z,1.90
2018-09-01T15:20:04.861Z,2.00
2018-09-01T15:22:31.851Z,2.00
2018-09-01T15:24:58.993Z,2.10
2018-09-01T15:27:25.850Z,2.02
2018-09-01T15:29:52.821Z,1.90
2018-09-01T15:32:19.774Z,2.10
2018-09-01T15:34:46.763Z,2.15
2018-09-01T15:37:13.721Z,2.22
2018-09-01T15:39:40.764Z,2.55
2018-09-01T15:42:07.807Z,2.10
2018-09-01T15:44:34.784Z,2.02
2018-09-01T15:47:01.732Z,1.90
2018-09-01T15:49:28.710Z,1.85
2018-09-01T15:51:55.668Z,2.10
2018-09-01T15:54:22.621Z,2.05
2018-09-01T15:56:49.587Z,2.00
2018-09-01T15:59:16.902Z,2.00
2018-09-01T16:01:43.903Z,2.20
2018-09-01T16:04:10.864Z,2.00
2018-09-01T16:06:37.846Z,2.23
2018-09-01T16:09:05.519Z,2.47
2018-09-01T16:11:32.545Z,2.50
2018-09-01T16:13:59.463Z,2.30
2018-09-01T16:16:26.423Z,2.08
2018-09-01T16:18:53.395Z,2.10
2018-09-01T16:21:20.358Z,2.20
2018-09-01T16:23:47.336Z,2.10
2018-09-01T16:26:14.371Z,2.13
2018-09-01T16:28:41.330Z,2.52
2018-09-01T16:31:08.259Z,2.50
2018-09-01T16:33:35.276Z,2.70
2018-09-01T16:36:02.230Z,5.97
2018-09-01T16:38:33.321Z,16.07
2018-09-01T16:41:00.298Z,42.10
2018-09-01T16:43:27.270Z,9.78
2018-09-01T16:45:54.255Z,8.53
2018-09-01T16:48:21.242Z,8.35
2018-09-01T16:50:48.198Z,5.17
2018-09-01T16:53:15.159Z,3.75
2018-09-01T16:55:42.123Z,3.17
2018-09-01T16:58:09.094Z,3.37
2018-09-01T17:00:36.389Z,2.67
2018-09-01T17:03:03.314Z,2.80
2018-09-01T17:05:30.287Z,2.70
2018-09-01T17:07:57.238Z,2.50
2018-09-01T17:10:24.234Z,2.67
2018-09-01T17:12:51.175Z,2.60
2018-09-01T17:15:18.130Z,2.70
2018-09-01T17:17:45.173Z,2.40
2018-09-01T17:20:12.078Z,2.45
2018-09-01T17:22:39.060Z,2.40
2018-09-01T17:25:06.045Z,2.20
2018-09-01T17:27:33.014Z,2.40
2018-09-01T17:29:59.985Z,2.20
2018-09-01T17:32:26.966Z,2.35
2018-09-01T17:34:53.932Z,2.27
2018-09-01T17:37:20.890Z,2.37
2018-09-01T17:39:47.875Z,2.62
2018-09-01T17:42:14.885Z,2.87
2018-09-01T17:44:41.884Z,3.37
2018-09-01T17:47:09.391Z,3.90
2018-09-01T17:49:36.605Z,3.90
2018-09-01T17:52:03.555Z,4.70
2018-09-01T17:54:30.658Z,3.35
2018-09-01T17:57:00.746Z,3.80
2018-09-01T17:59:27.779Z,3.20
2018-09-01T18:01:55.287Z,3.22
2018-09-01T18:04:22.568Z,2.60
2018-09-01T18:06:52.047Z,3.00
2018-09-01T18:09:19.034Z,4.70
2018-09-01T18:11:46.012Z,5.40
2018-09-01T18:14:12.978Z,4.78
2018-09-01T18:16:39.982Z,4.22
2018-09-01T18:19:06.922Z,3.72
2018-09-01T18:21:33.875Z,3.50
2018-09-01T18:24:00.886Z,3.00
2018-09-01T18:26:27.866Z,3.12
2018-09-01T18:28:54.834Z,3.27
2018-09-01T18:31:21.878Z,3.50
2018-09-01T18:33:48.871Z,4.10
2018-09-01T18:36:15.839Z,5.03
2018-09-01T18:38:42.894Z,6.50
2018-09-01T18:41:09.923Z,7.90
2018-09-01T18:43:36.908Z,10.20
2018-09-01T18:46:03.895Z,9.37
2018-09-01T18:48:30.907Z,9.40
2018-09-01T18:50:58.106Z,8.98
2018-09-01T18:53:25.149Z,7.72
2018-09-01T18:55:52.107Z,7.28
2018-09-01T18:58:19.213Z,5.90
2018-09-01T19:00:46.230Z,5.62
2018-09-01T19:03:13.974Z,4.87
2018-09-01T19:05:40.996Z,5.25
2018-09-01T19:08:08.154Z,4.80
2018-09-01T19:10:35.287Z,4.83
2018-09-01T19:13:02.284Z,4.60
2018-09-01T19:15:29.279Z,4.60
2018-09-01T19:17:56.358Z,4.58
2018-09-01T19:20:23.331Z,4.70
2018-09-01T19:22:50.341Z,4.60
2018-09-01T19:25:17.515Z,4.23
2018-09-01T19:27:44.539Z,4.20
2018-09-01T19:30:13.006Z,3.45
2018-09-01T19:32:40.042Z,3.30
2018-09-01T19:35:07.020Z,2.60
2018-09-01T19:37:34.031Z,2.40
2018-09-01T19:40:01.030Z,2.50
2018-09-01T19:42:28.034Z,2.42
2018-09-01T19:44:55.194Z,2.52
2018-09-01T19:47:22.044Z,2.40
2018-09-01T19:49:49.038Z,2.50
2018-09-01T19:52:16.218Z,2.55
2018-09-01T19:54:43.199Z,2.50
2018-09-01T19:57:10.284Z,2.30
2018-09-01T19:59:37.278Z,2.58
2018-09-01T20:02:04.280Z,2.47
2018-09-01T20:04:32.286Z,2.67
2018-09-01T20:06:59.708Z,2.50
2018-09-01T20:09:26.440Z,2.60
2018-09-01T20:11:53.459Z,2.40
2018-09-01T20:14:21.050Z,2.60
2018-09-01T20:16:49.202Z,2.62
2018-09-01T20:19:16.204Z,2.55
2018-09-01T20:21:43.208Z,2.60
2018-09-01T20:24:10.432Z,2.70
2018-09-01T20:26:37.469Z,2.95
2018-09-01T20:29:04.662Z,2.65
2018-09-01T20:31:31.699Z,2.50
2018-09-01T20:33:58.743Z,2.60
2018-09-01T20:36:25.801Z,2.60
2018-09-01T20:38:52.872Z,2.85
2018-09-01T20:41:19.950Z,2.30
2018-09-01T20:43:47.003Z,2.53
2018-09-01T20:46:14.017Z,2.47
2018-09-01T20:48:41.047Z,2.42
2018-09-01T20:51:08.107Z,2.20
2018-09-01T20:53:35.654Z,2.70
2018-09-01T20:56:02.595Z,2.67
2018-09-01T20:58:29.646Z,2.40
2018-09-01T21:00:56.820Z,2.77
2018-09-01T21:03:23.832Z,2.75
2018-09-01T21:05:51.492Z,2.83
2018-09-01T21:08:19.203Z,2.70
2018-09-01T21:10:46.224Z,2.67
2018-09-01T21:13:13.781Z,2.70
2018-09-01T21:15:40.763Z,2.75
2018-09-01T21:18:07.760Z,2.75
2018-09-01T21:20:34.830Z,3.00
2018-09-01T21:23:01.811Z,2.70
2018-09-01T21:25:29.470Z,2.70
2018-09-01T21:27:56.546Z,2.70
2018-09-01T21:30:23.484Z,2.85
2018-09-01T21:32:51.908Z,2.90
2018-09-01T21:35:18.972Z,2.75
2018-09-01T21:37:45.960Z,2.65
2018-09-01T21:40:13.076Z,3.40
2018-09-01T21:42:40.112Z,2.65
2018-09-01T21:45:07.179Z,2.70
2018-09-01T21:47:34.253Z,2.75
2018-09-01T21:50:01.386Z,2.92
2018-09-01T21:52:28.404Z,2.90
2018-09-01T21:54:55.359Z,2.80
2018-09-01T21:57:22.289Z,2.83
2018-09-01T21:59:49.465Z,2.87
2018-09-01T22:02:22.343Z,2.72
2018-09-01T22:04:55.172Z,2.80
2018-09-01T22:07:22.523Z,2.98
2018-09-01T22:09:50.713Z,2.70
2018-09-01T22:12:18.260Z,2.52
2018-09-01T22:14:45.263Z,2.80
2018-09-01T22:17:12.293Z,2.77
2018-09-01T22:19:39.359Z,2.90
2018-09-01T22:22:06.412Z,2.83
2018-09-01T22:24:33.414Z,2.83
2018-09-01T22:27:00.426Z,3.00
2018-09-01T22:29:27.451Z,2.85
2018-09-01T22:31:54.478Z,3.00
2018-09-01T22:34:21.515Z,2.52
2018-09-01T22:36:48.505Z,3.10
2018-09-01T22:39:15.544Z,3.02
2018-09-01T22:41:42.563Z,4.28
2018-09-01T22:44:09.584Z,5.30
2018-09-01T22:46:36.571Z,4.20
2018-09-01T22:49:03.625Z,2.92
2018-09-01T22:51:30.638Z,2.80
2018-09-01T22:53:57.629Z,2.60
2018-09-01T22:56:24.658Z,2.90
2018-09-01T22:58:51.667Z,2.72
2018-09-01T23:01:18.651Z,2.70
2018-09-01T23:03:45.680Z,2.67
2018-09-01T23:06:12.685Z,2.80
2018-09-01T23:08:40.223Z,2.85
2018-09-01T23:11:07.283Z,2.72
2018-09-01T23:13:34.336Z,2.77
2018-09-01T23:16:01.334Z,2.80
2018-09-01T23:18:28.398Z,2.70
2018-09-01T23:20:55.415Z,2.70
2018-09-01T23:23:22.402Z,2.83
2018-09-01T23:25:49.447Z,2.97
2018-09-01T23:28:16.438Z,3.30
2018-09-01T23:30:43.422Z,3.00
2018-09-01T23:33:10.440Z,2.90
2018-09-01T23:35:37.414Z,2.75
2018-09-01T23:38:04.411Z,3.37
2018-09-01T23:40:31.428Z,2.87
2018-09-01T23:42:58.439Z,3.20
2018-09-01T23:45:25.398Z,3.17
2018-09-01T23:47:52.387Z,3.60
2018-09-01T23:50:19.346Z,3.20
2018-09-01T23:52:46.343Z,3.10
2018-09-01T23:55:13.399Z,3.20
2018-09-01T23:57:40.316Z,2.90
